Time;durP1;ratioP1;P1;durP2;ratioP2;P2;SDS_P1;SDS_P2;PMS_P1;PMS_P2;Temp;Humidity;BMP_temperature;BMP_pressure;BME280_temperature;BME280_humidity;BME280_pressure;Samples;Min_cycle;Max_cycle;Signal;HPM_P1;HPM_P2
2021/06/10 00:00:35;;;;;;;8.47;7.60;;;;;;;;;;5074252;28;20414;-80
2021/06/10 00:03:01;;;;;;;8.27;7.57;;;;;;;;;;5072286;28;20440;-79
2021/06/10 00:05:27;;;;;;;9.63;8.73;;;;;;;;;;5073927;28;20499;-78
2021/06/10 00:07:54;;;;;;;8.40;7.60;;;;;;;;;;5074007;28;20425;-76
2021/06/10 00:10:20;;;;;;;10.67;8.47;;;;;;;;;;5073984;28;20414;-79
2021/06/10 00:12:47;;;;;;;13.27;8.80;;;;;;;;;;5073887;28;20422;-78
2021/06/10 00:15:15;;;;;;;10.10;9.10;;;;;;;;;;5074074;28;20414;-78
2021/06/10 00:20:45;;;;;;;8.43;7.73;;;;;;;;;;5073752;28;20549;-79
2021/06/10 00:23:11;;;;;;;8.80;8.00;;;;;;;;;;5073102;28;20453;-77
2021/06/10 00:25:38;;;;;;;9.77;8.97;;;;;;;;;;5073553;28;20489;-77
2021/06/10 00:28:04;;;;;;;10.30;9.40;;;;;;;;;;5073428;28;20793;-80
2021/06/10 00:30:31;;;;;;;8.97;8.07;;;;;;;;;;5072246;28;20444;-79
2021/06/10 00:36:00;;;;;;;9.00;8.20;;;;;;;;;;5073049;28;20579;-78
2021/06/10 00:38:27;;;;;;;10.07;9.00;;;;;;;;;;5073691;28;20508;-78
2021/06/10 00:40:55;;;;;;;9.87;8.97;;;;;;;;;;5073421;28;20542;-78
2021/06/10 00:43:21;;;;;;;8.97;8.27;;;;;;;;;;5073510;28;20429;-79
2021/06/10 00:45:47;;;;;;;10.17;8.90;;;;;;;;;;5073067;28;20488;-78
2021/06/10 00:51:17;;;;;;;9.03;8.13;;;;;;;;;;5073024;28;20467;-78
2021/06/10 00:53:43;;;;;;;8.90;8.10;;;;;;;;;;5073286;28;20468;-77
2021/06/10 00:56:11;;;;;;;10.63;9.00;;;;;;;;;;5073285;28;20831;-78
2021/06/10 00:58:37;;;;;;;9.60;8.80;;;;;;;;;;5073044;28;20536;-78
2021/06/10 01:01:04;;;;;;;9.37;8.57;;;;;;;;;;5073463;28;20486;-76
2021/06/10 01:06:51;;;;;;;10.10;9.27;;;;;;;;;;5072614;28;20830;-77
2021/06/10 01:09:27;;;;;;;9.83;8.93;;;;;;;;;;5073028;28;20410;-79
2021/06/10 01:12:19;;;;;;;9.83;8.93;;;;;;;;;;5073146;28;20855;-78
2021/06/10 01:14:48;;;;;;;10.00;9.00;;;;;;;;;;5079942;28;20780;-78
2021/06/10 01:17:15;;;;;;;10.90;9.90;;;;;;;;;;5073123;28;20418;-77
2021/06/10 01:20:01;;;;;;;12.17;9.83;;;;;;;;;;5072999;28;20832;-78
2021/06/10 01:22:27;;;;;;;12.83;8.87;;;;;;;;;;5072763;28;20457;-79
2021/06/10 01:24:59;;;;;;;9.70;8.60;;;;;;;;;;5071966;28;20521;-79
2021/06/10 01:27:27;;;;;;;10.20;9.30;;;;;;;;;;5072405;28;20833;-78
2021/06/10 01:29:57;;;;;;;12.03;9.17;;;;;;;;;;5072991;28;20413;-79
2021/06/10 01:32:24;;;;;;;10.73;9.63;;;;;;;;;;5073101;28;20693;-78
2021/06/10 01:34:51;;;;;;;8.77;7.97;;;;;;;;;;5072576;28;20496;-79
2021/06/10 01:37:17;;;;;;;8.70;7.90;;;;;;;;;;5073159;28;20463;-78
2021/06/10 01:39:44;;;;;;;9.20;8.30;;;;;;;;;;5072962;28;20413;-78
2021/06/10 01:42:11;;;;;;;9.67;8.70;;;;;;;;;;5072709;28;20461;-77
2021/06/10 01:44:38;;;;;;;9.10;8.30;;;;;;;;;;5072377;28;20579;-78
2021/06/10 01:47:04;;;;;;;12.60;8.70;;;;;;;;;;5072618;28;20522;-78
2021/06/10 01:49:33;;;;;;;9.07;8.17;;;;;;;;;;5072827;28;20402;-77
2021/06/10 01:51:59;;;;;;;9.10;8.30;;;;;;;;;;5072735;28;20421;-77
2021/06/10 01:54:26;;;;;;;9.03;8.23;;;;;;;;;;5072806;28;20410;-78
2021/06/10 01:56:52;;;;;;;10.90;9.80;;;;;;;;;;5072775;28;20877;-78
2021/06/10 01:59:19;;;;;;;9.13;8.23;;;;;;;;;;5072833;28;20402;-77
2021/06/10 02:01:45;;;;;;;8.97;8.13;;;;;;;;;;5072619;28;20549;-77
2021/06/10 02:04:14;;;;;;;10.33;7.43;;;;;;;;;;5072152;28;20900;-77
2021/06/10 02:06:41;;;;;;;9.60;8.70;;;;;;;;;;5072923;28;20429;-77
2021/06/10 02:09:07;;;;;;;11.07;9.97;;;;;;;;;;5073184;28;20465;-78
2021/06/10 02:11:35;;;;;;;11.67;10.30;;;;;;;;;;5072861;28;20413;-77
2021/06/10 02:14:01;;;;;;;11.60;10.40;;;;;;;;;;5072778;28;20838;-77
2021/06/10 02:16:27;;;;;;;10.90;9.83;;;;;;;;;;5072710;28;20426;-77
2021/06/10 02:21:56;;;;;;;15.03;11.20;;;;;;;;;;5071959;28;20505;-78
2021/06/10 02:24:23;;;;;;;10.53;9.63;;;;;;;;;;5071731;28;20415;-78
2021/06/10 02:26:49;;;;;;;9.73;8.77;;;;;;;;;;5071988;28;20487;-77
2021/06/10 02:29:15;;;;;;;10.30;9.37;;;;;;;;;;5072100;28;20877;-78
2021/06/10 02:31:41;;;;;;;10.50;9.50;;;;;;;;;;5072137;28;20454;-78
2021/06/10 02:37:12;;;;;;;9.10;8.30;;;;;;;;;;5072291;28;20935;-78
2021/06/10 02:39:39;;;;;;;9.40;8.33;;;;;;;;;;5072125;28;20520;-77
2021/06/10 02:42:06;;;;;;;11.13;10.13;;;;;;;;;;5072106;28;20477;-77
2021/06/10 02:44:32;;;;;;;9.20;8.40;;;;;;;;;;5072266;28;20437;-79
2021/06/10 02:47:02;;;;;;;7.80;7.10;;;;;;;;;;5073584;28;20834;-77
2021/06/10 02:49:29;;;;;;;8.77;7.83;;;;;;;;;;5075607;28;20885;-78
2021/06/10 02:51:55;;;;;;;10.07;9.20;;;;;;;;;;5075851;28;20925;-78
2021/06/10 02:54:21;;;;;;;8.63;7.93;;;;;;;;;;5075817;28;20410;-78
2021/06/10 02:56:47;;;;;;;8.53;7.83;;;;;;;;;;5075740;28;20405;-78
2021/06/10 02:59:14;;;;;;;9.77;8.80;;;;;;;;;;5076067;28;20410;-79
2021/06/10 03:01:42;;;;;;;8.00;7.30;;;;;;;;;;5075632;28;20466;-77
2021/06/10 03:07:13;;;;;;;8.93;8.13;;;;;;;;;;5074860;28;20721;-78
2021/06/10 03:09:39;;;;;;;9.23;8.33;;;;;;;;;;5075554;28;20415;-77
2021/06/10 03:12:06;;;;;;;8.43;7.73;;;;;;;;;;5075591;28;20406;-77
2021/06/10 03:14:32;;;;;;;8.67;7.87;;;;;;;;;;5075261;28;20503;-78
2021/06/10 03:16:58;;;;;;;9.60;8.70;;;;;;;;;;5073859;28;20428;-76
2021/06/10 03:22:28;;;;;;;9.77;8.87;;;;;;;;;;5075021;28;20555;-78
2021/06/10 03:24:54;;;;;;;10.13;9.10;;;;;;;;;;5075016;28;20826;-78
2021/06/10 03:27:20;;;;;;;9.60;8.60;;;;;;;;;;5074538;28;20716;-78
2021/06/10 03:29:47;;;;;;;9.83;8.83;;;;;;;;;;5074635;28;20413;-78
2021/06/10 03:32:14;;;;;;;9.23;8.33;;;;;;;;;;5075171;28;20441;-78
2021/06/10 03:37:44;;;;;;;11.67;9.00;;;;;;;;;;5074914;28;20527;-78
2021/06/10 03:40:11;;;;;;;9.40;8.43;;;;;;;;;;5073383;28;20433;-78
2021/06/10 03:42:38;;;;;;;9.63;8.63;;;;;;;;;;5074155;28;20465;-78
2021/06/10 03:45:04;;;;;;;9.37;8.47;;;;;;;;;;5074572;28;20882;-78
2021/06/10 03:47:31;;;;;;;9.90;9.00;;;;;;;;;;5074472;28;20437;-78
2021/06/10 03:53:00;;;;;;;9.47;8.70;;;;;;;;;;5074514;28;20458;-80
2021/06/10 03:55:26;;;;;;;9.80;9.00;;;;;;;;;;5074434;28;20428;-77
2021/06/10 03:57:53;;;;;;;10.67;9.67;;;;;;;;;;5074447;28;20825;-77
2021/06/10 04:00:19;;;;;;;9.30;8.40;;;;;;;;;;5074049;28;20915;-79
2021/06/10 04:02:45;;;;;;;10.20;9.20;;;;;;;;;;5074713;28;20791;-76
2021/06/10 04:05:11;;;;;;;10.27;9.30;;;;;;;;;;5074167;28;20417;-77
2021/06/10 04:07:37;;;;;;;11.40;10.40;;;;;;;;;;5074235;28;20510;-80
2021/06/10 04:10:04;;;;;;;11.93;10.73;;;;;;;;;;5074490;28;20771;-78
2021/06/10 04:12:30;;;;;;;15.03;10.30;;;;;;;;;;5074000;28;20446;-79
2021/06/10 04:14:56;;;;;;;12.57;9.90;;;;;;;;;;5074015;28;20426;-79
2021/06/10 04:17:23;;;;;;;10.67;9.70;;;;;;;;;;5074054;28;20422;-78
2021/06/10 04:22:52;;;;;;;9.50;8.60;;;;;;;;;;5073436;28;20573;-80
2021/06/10 04:25:18;;;;;;;10.90;9.73;;;;;;;;;;5073836;28;20442;-78
2021/06/10 04:27:44;;;;;;;11.60;8.90;;;;;;;;;;5072301;28;20448;-77
2021/06/10 04:30:12;;;;;;;13.30;9.17;;;;;;;;;;5073706;28;20897;-79
2021/06/10 04:32:38;;;;;;;14.07;10.40;;;;;;;;;;5073767;28;20419;-78
2021/06/10 04:38:07;;;;;;;11.47;9.97;;;;;;;;;;5073585;28;20424;-80
2021/06/10 04:40:33;;;;;;;14.30;9.70;;;;;;;;;;5073269;28;20513;-78
2021/06/10 04:42:59;;;;;;;16.63;10.77;;;;;;;;;;5073588;28;20487;-79
2021/06/10 04:45:25;;;;;;;19.00;10.03;;;;;;;;;;5071991;28;20442;-79
2021/06/10 04:47:51;;;;;;;12.53;9.60;;;;;;;;;;5071876;28;20541;-78
2021/06/10 04:53:22;;;;;;;17.80;12.43;;;;;;;;;;5073301;28;20464;-80
2021/06/10 04:55:48;;;;;;;24.40;14.40;;;;;;;;;;5073122;28;20426;-76
2021/06/10 04:58:14;;;;;;;30.70;13.60;;;;;;;;;;5072689;28;20433;-73
2021/06/10 05:00:40;;;;;;;14.87;13.40;;;;;;;;;;5073088;28;20897;-78
2021/06/10 05:03:06;;;;;;;21.77;14.57;;;;;;;;;;5072886;28;20912;-79
2021/06/10 05:08:36;;;;;;;18.03;11.90;;;;;;;;;;5072193;28;20417;-78
2021/06/10 05:11:03;;;;;;;22.07;13.30;;;;;;;;;;5072725;28;20414;-80
2021/06/10 05:13:29;;;;;;;14.87;11.60;;;;;;;;;;5072624;28;20410;-81
2021/06/10 05:15:56;;;;;;;24.27;11.10;;;;;;;;;;5072815;28;20497;-73
2021/06/10 05:18:22;;;;;;;12.37;10.07;;;;;;;;;;5070875;28;20434;-79
2021/06/10 05:23:51;;;;;;;14.00;9.67;;;;;;;;;;5072097;28;20456;-78
2021/06/10 05:26:17;;;;;;;15.30;10.47;;;;;;;;;;5072470;28;20426;-80
2021/06/10 05:28:43;;;;;;;16.43;9.33;;;;;;;;;;5072276;28;20421;-76
2021/06/10 05:31:09;;;;;;;18.20;9.47;;;;;;;;;;5072031;28;20517;-76
2021/06/10 05:33:35;;;;;;;12.97;9.90;;;;;;;;;;5072014;28;20425;-76
2021/06/10 05:39:05;;;;;;;9.67;8.77;;;;;;;;;;5071869;28;20457;-78
2021/06/10 05:41:32;;;;;;;10.30;7.90;;;;;;;;;;5071856;28;20465;-77
2021/06/10 05:43:58;;;;;;;10.43;7.93;;;;;;;;;;5070928;28;20434;-77
2021/06/10 05:46:24;;;;;;;13.57;8.27;;;;;;;;;;5072060;28;20815;-76
2021/06/10 05:48:50;;;;;;;12.07;8.43;;;;;;;;;;5071845;28;20405;-78
2021/06/10 05:51:16;;;;;;;8.87;7.00;;;;;;;;;;5071911;28;20402;-77
2021/06/10 05:53:42;;;;;;;7.10;6.60;;;;;;;;;;5071978;28;20420;-76
2021/06/10 05:56:08;;;;;;;7.70;6.87;;;;;;;;;;5071969;28;20409;-76
2021/06/10 05:58:34;;;;;;;7.60;6.97;;;;;;;;;;5071772;28;20406;-77
2021/06/10 06:01:00;;;;;;;7.13;6.53;;;;;;;;;;5071831;28;20461;-79
2021/06/10 06:03:27;;;;;;;8.33;7.43;;;;;;;;;;5071888;28;20425;-78
2021/06/10 06:08:56;;;;;;;6.57;6.07;;;;;;;;;;5071724;28;20417;-79
2021/06/10 06:11:22;;;;;;;6.93;6.33;;;;;;;;;;5071775;28;20422;-79
2021/06/10 06:14:06;;;;;;;7.40;6.47;;;;;;;;;;5071309;28;20413;-77
2021/06/10 06:16:32;;;;;;;7.97;7.37;;;;;;;;;;5071550;28;20460;-76
2021/06/10 06:19:01;;;;;;;10.93;8.73;;;;;;;;;;5071512;28;20398;-78
2021/06/10 06:21:27;;;;;;;9.20;8.30;;;;;;;;;;5074361;28;20541;-77
2021/06/10 06:23:56;;;;;;;10.40;9.53;;;;;;;;;;5075385;28;20773;-76
2021/06/10 06:26:22;;;;;;;9.50;7.80;;;;;;;;;;5075874;28;20413;-76
2021/06/10 06:28:48;;;;;;;9.27;8.30;;;;;;;;;;5076045;28;20951;-78
2021/06/10 06:31:14;;;;;;;10.57;9.63;;;;;;;;;;5075903;28;20434;-78
2021/06/10 06:33:41;;;;;;;8.97;8.17;;;;;;;;;;5074675;28;20422;-78
2021/06/10 06:39:10;;;;;;;10.30;9.17;;;;;;;;;;5071224;28;20405;-77
2021/06/10 06:41:36;;;;;;;11.70;9.20;;;;;;;;;;5073002;28;20570;-75
2021/06/10 06:44:03;;;;;;;9.80;8.80;;;;;;;;;;5073141;28;20442;-79
2021/06/10 06:46:29;;;;;;;9.90;8.90;;;;;;;;;;5072541;28;20733;-78
2021/06/10 06:48:55;;;;;;;11.40;8.80;;;;;;;;;;5071901;28;20433;-79
2021/06/10 06:54:25;;;;;;;12.10;8.70;;;;;;;;;;5073322;28;20417;-78
2021/06/10 06:56:51;;;;;;;13.17;9.30;;;;;;;;;;5072523;28;20402;-77
2021/06/10 06:59:17;;;;;;;12.47;9.30;;;;;;;;;;5073008;28;20897;-79
2021/06/10 07:01:43;;;;;;;13.43;8.53;;;;;;;;;;5072984;28;20465;-79
2021/06/10 07:04:09;;;;;;;11.20;8.37;;;;;;;;;;5072435;28;20414;-77
2021/06/10 07:09:39;;;;;;;9.37;8.37;;;;;;;;;;5072377;28;20529;-79
2021/06/10 07:12:05;;;;;;;11.77;9.20;;;;;;;;;;5071214;28;20429;-76
2021/06/10 07:14:31;;;;;;;13.43;9.43;;;;;;;;;;5072564;28;20454;-83
2021/06/10 07:16:58;;;;;;;11.60;8.57;;;;;;;;;;5072841;28;20497;-80
2021/06/10 07:19:24;;;;;;;10.20;8.00;;;;;;;;;;5071725;28;20458;-77
2021/06/10 07:24:54;;;;;;;9.00;8.20;;;;;;;;;;5073054;28;20413;-82
2021/06/10 07:27:20;;;;;;;8.67;7.97;;;;;;;;;;5073164;28;20419;-81
2021/06/10 07:29:46;;;;;;;14.00;8.30;;;;;;;;;;5072707;28;20425;-82
2021/06/10 07:32:13;;;;;;;9.70;8.03;;;;;;;;;;5072255;28;20871;-77
2021/06/10 07:40:46;;;;;;;13.37;8.80;;;;;;;;;;5072759;28;20739;-77
2021/06/10 07:43:12;;;;;;;8.30;7.10;;;;;;;;;;5072740;28;20449;-78
2021/06/10 07:45:38;;;;;;;11.50;10.40;;;;;;;;;;5072497;28;20449;-79
2021/06/10 07:48:05;;;;;;;17.00;15.47;;;;;;;;;;5072532;28;20465;-78
2021/06/10 07:50:31;;;;;;;9.43;8.53;;;;;;;;;;5072537;28;20772;-79
2021/06/10 07:52:58;;;;;;;7.97;7.37;;;;;;;;;;5072450;28;20416;-80
2021/06/10 07:55:25;;;;;;;8.77;8.00;;;;;;;;;;5069918;28;20872;-78
2021/06/10 07:57:52;;;;;;;8.33;7.60;;;;;;;;;;5069477;28;20853;-76
2021/06/10 08:00:20;;;;;;;9.27;8.43;;;;;;;;;;5071814;28;20688;-76
2021/06/10 08:02:48;;;;;;;8.80;8.10;;;;;;;;;;5070566;28;20469;-77
2021/06/10 08:05:18;;;;;;;9.47;8.20;;;;;;;;;;5068918;28;20966;-77
2021/06/10 08:07:47;;;;;;;8.83;8.03;;;;;;;;;;5069382;28;20430;-76
2021/06/10 08:10:15;;;;;;;9.43;8.63;;;;;;;;;;5069054;28;20437;-73
2021/06/10 08:12:43;;;;;;;10.63;8.77;;;;;;;;;;5069079;28;20425;-76
2021/06/10 08:15:10;;;;;;;8.57;7.70;;;;;;;;;;5069191;28;20525;-76
2021/06/10 08:17:36;;;;;;;11.37;10.27;;;;;;;;;;5069291;28;20410;-75
2021/06/10 08:26:01;;;;;;;12.27;9.50;;;;;;;;;;5069902;28;20475;-75
2021/06/10 08:28:32;;;;;;;10.33;9.07;;;;;;;;;;5070165;28;20414;-75
2021/06/10 08:31:00;;;;;;;14.93;9.13;;;;;;;;;;5069951;28;20441;-77
2021/06/10 08:33:44;;;;;;;10.70;9.83;;;;;;;;;;5072438;28;20457;-76
2021/06/10 08:36:11;;;;;;;10.23;9.20;;;;;;;;;;5069499;28;20488;-77
2021/06/10 08:38:38;;;;;;;10.00;8.87;;;;;;;;;;5068218;28;20442;-76
2021/06/10 08:41:05;;;;;;;11.30;9.43;;;;;;;;;;5070814;28;20453;-79
2021/06/10 08:43:32;;;;;;;11.57;8.77;;;;;;;;;;5069500;28;20473;-77
2021/06/10 08:46:03;;;;;;;10.50;9.40;;;;;;;;;;5070536;28;20398;-76
2021/06/10 08:48:37;;;;;;;15.17;11.30;;;;;;;;;;5071106;28;20418;-75
2021/06/10 08:51:04;;;;;;;11.30;10.40;;;;;;;;;;5070762;28;20709;-76
2021/06/10 08:53:31;;;;;;;12.23;10.80;;;;;;;;;;5070400;28;20410;-77
2021/06/10 08:55:57;;;;;;;10.13;9.23;;;;;;;;;;5070644;28;20405;-76
2021/06/10 08:58:24;;;;;;;11.07;10.07;;;;;;;;;;5070802;28;20418;-77
2021/06/10 09:00:50;;;;;;;11.10;10.00;;;;;;;;;;5070475;28;20483;-76
2021/06/10 09:03:26;;;;;;;10.93;9.93;;;;;;;;;;5070037;28;20476;-75
2021/06/10 09:06:01;;;;;;;11.57;10.37;;;;;;;;;;5068478;28;20946;-75
2021/06/10 09:08:28;;;;;;;14.73;10.13;;;;;;;;;;5069876;28;20417;-76
2021/06/10 09:11:03;;;;;;;12.17;11.00;;;;;;;;;;5070099;28;20877;-75
2021/06/10 09:13:41;;;;;;;12.60;9.97;;;;;;;;;;5070128;28;20418;-75
2021/06/10 09:16:23;;;;;;;10.40;9.50;;;;;;;;;;5070234;28;20425;-76
2021/06/10 09:18:55;;;;;;;10.47;9.40;;;;;;;;;;5070485;28;20426;-75
2021/06/10 09:21:29;;;;;;;9.80;8.90;;;;;;;;;;5070010;28;20506;-76
2021/06/10 09:23:56;;;;;;;16.57;11.80;;;;;;;;;;5070584;28;20410;-77
2021/06/10 09:26:22;;;;;;;14.07;11.43;;;;;;;;;;5070133;28;20413;-78
2021/06/10 09:28:52;;;;;;;10.53;9.63;;;;;;;;;;5070085;28;20422;-76
2021/06/10 09:31:34;;;;;;;9.60;8.80;;;;;;;;;;5069838;28;20418;-76
2021/06/10 09:34:02;;;;;;;11.60;10.50;;;;;;;;;;5070812;28;20928;-73
2021/06/10 09:36:29;;;;;;;13.00;10.20;;;;;;;;;;5070962;28;20469;-77
2021/06/10 09:39:08;;;;;;;12.17;11.03;;;;;;;;;;5070366;28;20410;-78
2021/06/10 09:41:36;;;;;;;12.50;11.43;;;;;;;;;;5070309;28;20523;-78
2021/06/10 09:44:02;;;;;;;11.10;10.07;;;;;;;;;;5070457;28;20486;-76
2021/06/10 09:46:28;;;;;;;15.57;13.63;;;;;;;;;;5070529;28;20513;-78
2021/06/10 09:49:06;;;;;;;13.07;11.83;;;;;;;;;;5070404;28;20410;-76
2021/06/10 09:51:32;;;;;;;12.30;11.30;;;;;;;;;;5068815;28;20433;-76
2021/06/10 09:53:59;;;;;;;12.10;11.00;;;;;;;;;;5070411;28;20804;-72
2021/06/10 09:56:26;;;;;;;15.47;10.77;;;;;;;;;;5069489;28;20421;-76
2021/06/10 09:59:00;;;;;;;12.40;11.30;;;;;;;;;;5070469;28;20414;-77
2021/06/10 10:01:26;;;;;;;11.27;10.17;;;;;;;;;;5070335;28;20454;-76
2021/06/10 10:03:54;;;;;;;13.03;11.93;;;;;;;;;;5068958;28;20932;-77
2021/06/10 10:06:24;;;;;;;12.07;10.97;;;;;;;;;;5069920;28;20413;-77
2021/06/10 10:08:54;;;;;;;12.00;11.00;;;;;;;;;;5070127;28;20505;-78
2021/06/10 10:11:21;;;;;;;11.90;11.00;;;;;;;;;;5069251;28;20406;-76
2021/06/10 10:13:48;;;;;;;13.17;12.00;;;;;;;;;;5069680;28;20467;-76
2021/06/10 10:16:14;;;;;;;13.03;11.90;;;;;;;;;;5070049;28;20429;-77
2021/06/10 10:18:43;;;;;;;12.80;11.70;;;;;;;;;;5068052;28;20491;-76
2021/06/10 10:21:09;;;;;;;12.20;11.20;;;;;;;;;;5069126;28;20748;-77
2021/06/10 10:23:35;;;;;;;16.33;14.43;;;;;;;;;;5069304;28;20426;-76
2021/06/10 10:26:03;;;;;;;13.83;12.60;;;;;;;;;;5071052;28;20410;-77
2021/06/10 10:28:30;;;;;;;13.70;12.60;;;;;;;;;;5071213;28;20775;-81
2021/06/10 10:31:00;;;;;;;13.10;12.00;;;;;;;;;;5073288;28;20758;-80
2021/06/10 10:33:27;;;;;;;15.40;13.90;;;;;;;;;;5069864;28;20422;-76
2021/06/10 10:36:02;;;;;;;16.27;14.87;;;;;;;;;;5069213;28;20466;-76
2021/06/10 10:41:32;;;;;;;15.10;13.60;;;;;;;;;;5069036;28;20802;-77
2021/06/10 10:44:27;;;;;;;12.93;11.83;;;;;;;;;;5067839;28;20496;-76
2021/06/10 10:47:08;;;;;;;11.20;10.30;;;;;;;;;;5068056;28;20438;-75
2021/06/10 10:49:42;;;;;;;13.20;12.00;;;;;;;;;;5069316;28;20402;-77
2021/06/10 10:52:14;;;;;;;12.83;11.63;;;;;;;;;;5067721;28;20932;-75
2021/06/10 10:54:40;;;;;;;13.03;11.83;;;;;;;;;;5068971;28;20467;-76
2021/06/10 10:57:07;;;;;;;14.70;13.23;;;;;;;;;;5069086;28;20456;-76
2021/06/10 10:59:50;;;;;;;12.90;11.90;;;;;;;;;;5068840;28;20422;-78
2021/06/10 11:02:19;;;;;;;17.03;15.53;;;;;;;;;;5069124;28;20538;-77
2021/06/10 11:04:49;;;;;;;14.40;12.90;;;;;;;;;;5068996;28;20453;-77
2021/06/10 11:07:33;;;;;;;13.60;12.40;;;;;;;;;;5069760;28;20422;-77
2021/06/10 11:10:00;;;;;;;13.70;10.90;;;;;;;;;;5072713;28;20912;-77
2021/06/10 11:12:43;;;;;;;12.30;11.40;;;;;;;;;;5071322;28;20520;-78
2021/06/10 11:15:30;;;;;;;12.30;11.20;;;;;;;;;;5072443;28;20936;-77
2021/06/10 11:18:06;;;;;;;15.20;13.93;;;;;;;;;;5071934;28;20433;-77
2021/06/10 11:20:35;;;;;;;14.67;13.40;;;;;;;;;;5072373;28;20429;-77
2021/06/10 11:23:11;;;;;;;14.93;13.63;;;;;;;;;;5072254;28;20470;-77
2021/06/10 11:25:45;;;;;;;14.00;12.70;;;;;;;;;;5072647;28;20413;-77
2021/06/10 11:28:13;;;;;;;15.03;13.57;;;;;;;;;;5072595;28;20422;-77
2021/06/10 11:30:40;;;;;;;15.33;14.10;;;;;;;;;;5072905;28;20452;-78
2021/06/10 11:33:18;;;;;;;14.50;13.20;;;;;;;;;;5072892;28;20422;-77
2021/06/10 11:35:44;;;;;;;14.53;13.03;;;;;;;;;;5072191;28;20493;-76
2021/06/10 11:38:16;;;;;;;16.10;14.60;;;;;;;;;;5071929;28;20813;-75
2021/06/10 11:40:43;;;;;;;14.47;13.17;;;;;;;;;;5072523;28;20486;-81
2021/06/10 11:43:10;;;;;;;15.90;14.47;;;;;;;;;;5072783;28;20478;-80
2021/06/10 11:45:37;;;;;;;14.90;13.80;;;;;;;;;;5072533;28;20447;-79
2021/06/10 11:48:03;;;;;;;14.10;12.90;;;;;;;;;;5072681;28;20505;-79
2021/06/10 11:50:31;;;;;;;14.57;13.33;;;;;;;;;;5072448;28;20406;-79
2021/06/10 11:52:59;;;;;;;15.10;13.80;;;;;;;;;;5072677;28;21035;-78
2021/06/10 11:55:29;;;;;;;15.93;14.47;;;;;;;;;;5072835;28;20418;-78
2021/06/10 11:57:57;;;;;;;14.93;13.70;;;;;;;;;;5073131;28;20410;-80
2021/06/10 12:00:27;;;;;;;13.80;12.60;;;;;;;;;;5072525;28;20467;-80
2021/06/10 12:02:57;;;;;;;13.70;12.50;;;;;;;;;;5072423;28;20800;-78
2021/06/10 12:05:24;;;;;;;14.13;12.93;;;;;;;;;;5072640;28;20418;-80
2021/06/10 12:07:50;;;;;;;15.07;13.87;;;;;;;;;;5072278;28;20780;-77
2021/06/10 12:10:20;;;;;;;13.40;12.20;;;;;;;;;;5072419;28;20766;-77
2021/06/10 12:12:48;;;;;;;13.97;12.57;;;;;;;;;;5072071;28;20489;-79
2021/06/10 12:15:24;;;;;;;12.93;11.87;;;;;;;;;;5072301;28;20551;-81
2021/06/10 12:17:51;;;;;;;12.37;11.47;;;;;;;;;;5072054;28;20414;-78
2021/06/10 12:20:17;;;;;;;13.30;12.13;;;;;;;;;;5071713;28;20406;-80
2021/06/10 12:22:47;;;;;;;12.33;11.37;;;;;;;;;;5071954;28;20469;-77
2021/06/10 12:25:23;;;;;;;12.63;11.60;;;;;;;;;;5071587;28;20900;-76
2021/06/10 12:27:49;;;;;;;12.03;10.93;;;;;;;;;;5070553;28;20454;-79
2021/06/10 12:30:22;;;;;;;13.83;12.63;;;;;;;;;;5070171;28;20426;-79
2021/06/10 12:32:49;;;;;;;13.37;12.30;;;;;;;;;;5071915;28;20410;-78
2021/06/10 12:35:18;;;;;;;12.70;11.70;;;;;;;;;;5071318;28;20987;-79
2021/06/10 12:37:48;;;;;;;12.63;11.60;;;;;;;;;;5072190;28;20532;-79
2021/06/10 12:40:14;;;;;;;13.90;12.60;;;;;;;;;;5071709;28;20433;-79
2021/06/10 12:42:40;;;;;;;14.30;13.20;;;;;;;;;;5071451;28;20543;-81
2021/06/10 12:45:24;;;;;;;13.73;12.73;;;;;;;;;;5072608;28;20460;-79
2021/06/10 12:47:50;;;;;;;13.10;12.00;;;;;;;;;;5072784;28;20420;-79
2021/06/10 12:50:23;;;;;;;14.63;13.13;;;;;;;;;;5071685;28;20411;-78
2021/06/10 12:52:49;;;;;;;14.20;12.90;;;;;;;;;;5071773;28;20406;-78
2021/06/10 12:55:16;;;;;;;13.00;11.97;;;;;;;;;;5071570;28;20763;-79
2021/06/10 12:57:42;;;;;;;13.57;12.30;;;;;;;;;;5073149;28;20498;-78
2021/06/10 13:00:12;;;;;;;12.17;11.27;;;;;;;;;;5073116;28;20434;-81
2021/06/10 13:02:42;;;;;;;12.97;11.97;;;;;;;;;;5072697;28;20517;-78
2021/06/10 13:05:08;;;;;;;13.63;12.43;;;;;;;;;;5072671;28;20936;-79
2021/06/10 13:07:40;;;;;;;12.17;11.20;;;;;;;;;;5072687;28;20422;-79
2021/06/10 13:10:07;;;;;;;12.43;11.43;;;;;;;;;;5072771;28;20408;-80
2021/06/10 13:12:41;;;;;;;14.00;12.93;;;;;;;;;;5072830;28;20915;-80
2021/06/10 13:15:16;;;;;;;14.70;13.17;;;;;;;;;;5073028;28;20406;-80
2021/06/10 13:17:49;;;;;;;14.43;13.17;;;;;;;;;;5071415;28;20542;-79
2021/06/10 13:20:31;;;;;;;16.03;14.43;;;;;;;;;;5072822;28;20422;-79
2021/06/10 13:23:01;;;;;;;16.57;15.17;;;;;;;;;;5072291;28;20462;-80
2021/06/10 13:25:27;;;;;;;16.90;15.50;;;;;;;;;;5072631;28;20475;-80
2021/06/10 13:28:09;;;;;;;17.93;16.43;;;;;;;;;;5072440;28;20840;-80
2021/06/10 13:30:35;;;;;;;16.07;14.77;;;;;;;;;;5071979;28;20410;-79
2021/06/10 13:33:01;;;;;;;14.97;13.67;;;;;;;;;;5072632;28;20418;-79
2021/06/10 13:35:28;;;;;;;13.50;12.20;;;;;;;;;;5071849;28;20535;-80
2021/06/10 13:37:54;;;;;;;12.77;11.77;;;;;;;;;;5070894;28;20434;-78
2021/06/10 13:40:20;;;;;;;11.90;10.97;;;;;;;;;;5072017;28;20414;-80
2021/06/10 13:42:52;;;;;;;12.67;11.43;;;;;;;;;;5070671;28;20832;-79
2021/06/10 13:45:19;;;;;;;13.83;12.50;;;;;;;;;;5072135;28;20402;-79
2021/06/10 13:47:45;;;;;;;15.40;13.90;;;;;;;;;;5072322;28;20497;-79
2021/06/10 13:50:13;;;;;;;18.30;13.03;;;;;;;;;;5070775;28;20425;-78
2021/06/10 13:58:28;;;;;;;13.50;12.40;;;;;;;;;;5071482;28;20449;-80
2021/06/10 14:00:54;;;;;;;13.03;11.93;;;;;;;;;;5071795;28;20950;-79
2021/06/10 14:03:21;;;;;;;13.30;12.07;;;;;;;;;;5070224;28;20431;-77
2021/06/10 14:05:47;;;;;;;13.37;12.07;;;;;;;;;;5070318;28;20432;-81
2021/06/10 14:08:13;;;;;;;13.70;12.57;;;;;;;;;;5072187;28;20410;-80
2021/06/10 14:10:39;;;;;;;12.47;9.60;;;;;;;;;;5072246;28;20398;-78
2021/06/10 14:13:06;;;;;;;14.50;11.00;;;;;;;;;;5072026;28;20403;-79
2021/06/10 14:15:32;;;;;;;14.33;11.73;;;;;;;;;;5071446;28;20414;-78
2021/06/10 14:17:58;;;;;;;16.87;11.93;;;;;;;;;;5069690;28;20446;-78
2021/06/10 14:20:24;;;;;;;17.50;13.20;;;;;;;;;;5070806;28;20867;-80
2021/06/10 14:22:50;;;;;;;15.47;13.53;;;;;;;;;;5070949;28;20462;-80
2021/06/10 14:28:20;;;;;;;15.63;14.00;;;;;;;;;;5071117;28;20424;-80
2021/06/10 14:33:12;;;;;;;20.97;14.20;;;;;;;;;;5071198;28;20437;-80
2021/06/10 14:35:38;;;;;;;13.40;12.20;;;;;;;;;;5070488;28;20778;-76
2021/06/10 14:43:53;;;;;;;13.40;12.10;;;;;;;;;;5074467;28;20533;-79
2021/06/10 14:46:28;;;;;;;15.40;11.50;;;;;;;;;;5073866;28;20411;-78
2021/06/10 14:48:54;;;;;;;12.10;11.00;;;;;;;;;;5073991;28;20422;-78
2021/06/10 14:51:20;;;;;;;11.57;9.93;;;;;;;;;;5074101;28;20947;-78
2021/06/10 14:53:46;;;;;;;10.50;9.40;;;;;;;;;;5074010;28;20418;-77
2021/06/10 14:56:12;;;;;;;11.10;10.00;;;;;;;;;;5074179;28;20989;-76
2021/06/10 14:58:38;;;;;;;10.57;9.77;;;;;;;;;;5074274;28;20418;-79
2021/06/10 15:01:04;;;;;;;9.97;8.97;;;;;;;;;;5074199;28;20429;-78
2021/06/10 15:03:30;;;;;;;9.63;8.83;;;;;;;;;;5074287;28;20900;-77
2021/06/10 15:05:57;;;;;;;10.67;9.67;;;;;;;;;;5074082;28;20466;-78
2021/06/10 15:14:10;;;;;;;9.30;8.33;;;;;;;;;;5073850;28;20412;-79
2021/06/10 15:16:36;;;;;;;9.50;8.73;;;;;;;;;;5073364;28;20418;-81
2021/06/10 15:19:03;;;;;;;10.20;9.30;;;;;;;;;;5072075;28;20797;-80
2021/06/10 15:21:29;;;;;;;12.10;10.87;;;;;;;;;;5073552;28;20461;-78
2021/06/10 15:23:56;;;;;;;10.90;9.90;;;;;;;;;;5073728;28;20505;-79
2021/06/10 15:26:22;;;;;;;10.57;9.57;;;;;;;;;;5073211;28;20406;-81
2021/06/10 15:28:49;;;;;;;10.97;9.97;;;;;;;;;;5072397;28;20441;-79
2021/06/10 15:31:15;;;;;;;10.20;9.30;;;;;;;;;;5073549;28;20464;-80
2021/06/10 15:33:42;;;;;;;11.47;10.47;;;;;;;;;;5073569;28;20607;-80
2021/06/10 15:36:08;;;;;;;11.00;10.10;;;;;;;;;;5073180;28;20538;-78
2021/06/10 15:38:34;;;;;;;14.30;12.30;;;;;;;;;;5071650;28;20910;-78
2021/06/10 15:44:04;;;;;;;14.53;11.93;;;;;;;;;;5073010;28;20836;-79
2021/06/10 15:46:30;;;;;;;15.27;12.70;;;;;;;;;;5072476;28;20421;-78
2021/06/10 15:48:56;;;;;;;12.60;11.47;;;;;;;;;;5072668;28;20838;-80
2021/06/10 15:51:22;;;;;;;12.17;11.07;;;;;;;;;;5072966;28;20773;-79
2021/06/10 15:53:49;;;;;;;12.27;11.17;;;;;;;;;;5072667;28;20422;-79
2021/06/10 15:59:18;;;;;;;10.50;8.53;;;;;;;;;;5072681;28;20540;-79
2021/06/10 16:01:44;;;;;;;10.03;8.20;;;;;;;;;;5073087;28;20482;-76
2021/06/10 16:04:10;;;;;;;10.97;9.87;;;;;;;;;;5072981;28;20406;-79
2021/06/10 16:06:36;;;;;;;12.33;11.23;;;;;;;;;;5072639;28;20497;-80
2021/06/10 16:09:02;;;;;;;10.17;9.17;;;;;;;;;;5072526;28;20487;-79
2021/06/10 16:11:28;;;;;;;10.47;9.37;;;;;;;;;;5072267;28;20410;-81
2021/06/10 16:13:54;;;;;;;10.93;9.20;;;;;;;;;;5072503;28;20433;-79
2021/06/10 16:16:20;;;;;;;10.57;9.67;;;;;;;;;;5071803;28;20418;-78
2021/06/10 16:18:46;;;;;;;9.07;8.17;;;;;;;;;;5071565;28;20432;-77
2021/06/10 16:21:12;;;;;;;10.33;8.80;;;;;;;;;;5072143;28;20493;-76